Station Historical Data
Daily Summary for January 13, 2018 Units:  English    Metric   Both
« Previous Day
Next Day »
Daily Weekly Monthly Yearly Custom
  High: Low: Average:
Temperature: 37.6 °F 31.3 °F 33.6 °F
Dew Point: 36 °F 24.1 °F 29.3 °F
Humidity: 95 % 70 % 84 %
Wind Speed: 7.6 mph -999.5 mph -2.7 mph
Wind Gust: 7.6 mph - -
Wind:- - South
Pressure: 30.4 in -100 in -
Precipitation: 0 in    
Historical Graphs
 
 
Tabular Data for January 13, 2018
Time Temperature Dew Point Pressure Wind Wind Speed Wind Gust Humidity Rainfall Rate (Hourly) solar Conditions
00:01 37.6 °F 36 °F 30.4 in Calm     94 % 0 in meteobridge W/m2
00:07 37.6 °F 36 °F 30.4 in WNW 1.3 mph 1.3 mph 94 % 0 in meteobridge W/m2
00:13 37.6 °F 36 °F 30.4 in Calm     94 % 0 in meteobridge W/m2
00:19 37.6 °F 36 °F 30.4 in Calm     94 % 0 in meteobridge W/m2
00:25 37.6 °F 36 °F 30.4 in Calm     94 % 0 in meteobridge W/m2
00:31 37.6 °F 36 °F 30.4 in Calm     94 % 0 in meteobridge W/m2
00:37 37.6 °F 36 °F 30.4 in Calm     94 % 0 in meteobridge W/m2
00:43 37.6 °F 36 °F 30.4 in Calm     94 % 0 in meteobridge W/m2
00:57 37.4 °F 35.8 °F 30.4 in Calm     94 % 0 in meteobridge W/m2
01:02 37.4 °F 35.8 °F 30.4 in Calm   1.6 mph 94 % 0 in meteobridge W/m2
01:09 37.2 °F 35.6 °F -100 in Calm     94 % 0 in meteobridge W/m2
01:16 37.2 °F 35.6 °F 30.4 in Calm   1.3 mph 94 % 0 in meteobridge W/m2
01:22 37.4 °F 35.8 °F 30.4 in Calm     94 % 0 in meteobridge W/m2
01:28 37.2 °F 35.6 °F 30.4 in Calm     94 % 0 in meteobridge W/m2
01:34 37.4 °F 35.8 °F 30.4 in Calm     94 % 0 in meteobridge W/m2
01:40 37.4 °F 35.8 °F 30.4 in Calm     94 % 0 in meteobridge W/m2
01:46 37.4 °F 35.8 °F 30.4 in West 1.6 mph 4 mph 94 % 0 in meteobridge W/m2
01:52 37.2 °F 35.6 °F 30.4 in WSW 2.2 mph 2.2 mph 94 % 0 in meteobridge W/m2
01:58 37.2 °F 35.6 °F 30.4 in WSW 0.9 mph 0.9 mph 94 % 0 in meteobridge W/m2
02:05 37.4 °F 35.8 °F 30.4 in West 0.9 mph 0.9 mph 94 % 0 in meteobridge W/m2
02:12 37 °F 35.4 °F 30.4 in Calm   2.7 mph 94 % 0 in meteobridge W/m2
02:18 37 °F 35.4 °F 30.4 in Calm   3.6 mph 94 % 0 in meteobridge W/m2
02:24 36.9 °F 35.2 °F 30.4 in WSW 6.3 mph 6.3 mph 94 % 0 in meteobridge W/m2
02:30 36.7 °F 35.1 °F 30.4 in Calm   3.6 mph 94 % 0 in meteobridge W/m2
02:36 36.9 °F 35.2 °F 30.4 in Calm     94 % 0 in meteobridge W/m2
02:48 36.9 °F 35.2 °F 30.4 in Calm     94 % 0 in meteobridge W/m2
02:58 36.5 °F 34.9 °F 30.4 in Calm     94 % 0 in meteobridge W/m2
03:03 36.3 °F 34.7 °F 30.4 in Calm   6.3 mph 94 % 0 in meteobridge W/m2
03:08 36 °F 34.3 °F 30.4 in West 3.4 mph 3.4 mph 94 % 0 in meteobridge W/m2
03:21 35.6 °F 34 °F 30.4 in Calm     94 % 0 in meteobridge W/m2
03:27 35.4 °F 33.8 °F 30.4 in West 3.8 mph 3.8 mph 94 % 0 in meteobridge W/m2
03:33 35.6 °F 34.3 °F 30.4 in WSW 2 mph 2.5 mph 95 % 0 in meteobridge W/m2
03:39 35.4 °F 34.2 °F 30.4 in WSW 3.8 mph 3.8 mph 95 % 0 in meteobridge W/m2
03:47 35.2 °F 34 °F 30.4 in NNE 1.3 mph 1.3 mph 95 % 0 in meteobridge W/m2
03:53 35.2 °F 34 °F 30.4 in WSW 3.4 mph 3.4 mph 95 % 0 in meteobridge W/m2
04:01 35.1 °F 33.8 °F 30.4 in West 2.9 mph 2.9 mph 95 % 0 in meteobridge W/m2
04:07 35.1 °F 33.4 °F 30.4 in Calm   1.1 mph 94 % 0 in meteobridge W/m2
04:14 35.2 °F 33.6 °F 30.4 in WSW 2.5 mph 2.5 mph 94 % 0 in meteobridge W/m2
04:27 34.9 °F 33.1 °F 30.4 in Calm   1.6 mph 93 % 0 in meteobridge W/m2
04:34 35.1 °F 32.9 °F 30.4 in WSW 3.8 mph 3.8 mph 92 % 0 in meteobridge W/m2
04:40 35.1 °F 32.9 °F 30.4 in WNW 2.2 mph 2.2 mph 92 % 0 in meteobridge W/m2
04:46 34.9 °F 32.5 °F 30.4 in Calm     91 % 0 in meteobridge W/m2
04:57 35.1 °F 32.7 °F 30.4 in Calm   3.4 mph 91 % 0 in meteobridge W/m2
05:03 34.9 °F 32.5 °F 30.4 in Calm   2.7 mph 91 % 0 in meteobridge W/m2
05:10 34.5 °F 31.8 °F 30.4 in WSW 2.2 mph 4.5 mph 90 % 0 in meteobridge W/m2
05:16 34.7 °F 32 °F 30.4 in Calm   3.1 mph 90 % 0 in meteobridge W/m2
05:25 34.5 °F 31.8 °F 30.4 in West 2.7 mph 3.8 mph 90 % 0 in meteobridge W/m2
05:31 34.5 °F 31.8 °F 30.4 in WSW 3.1 mph 3.1 mph 90 % 0 in meteobridge W/m2
05:38 34.3 °F 31.5 °F 30.4 in Calm     89 % 0 in meteobridge W/m2
05:44 34.3 °F 31.5 °F 30.4 in Calm     89 % 0 in meteobridge W/m2
05:50 34.2 °F 31.5 °F 30.4 in WSW 3.8 mph 3.8 mph 90 % 0 in meteobridge W/m2
05:57 34.2 °F 31.5 °F 30.4 in Calm     90 % 0 in meteobridge W/m2
06:04 34 °F 31.3 °F 30.4 in West 4.3 mph 4.3 mph 90 % 0 in meteobridge W/m2
06:10 34 °F 31.3 °F 30.4 in WSW 4.9 mph 4.9 mph 90 % 0 in meteobridge W/m2
06:16 34 °F 31.3 °F 30.4 in WSW 4 mph 4 mph 90 % 0 in meteobridge W/m2
06:25 34 °F 31.3 °F 30.4 in WSW 4 mph 4 mph 90 % 0 in meteobridge W/m2
06:31 33.8 °F 30.9 °F 30.4 in SW 2.5 mph 3.6 mph 89 % 0 in meteobridge W/m2
06:44 33.8 °F 30.9 °F 30.4 in West 6 mph 6 mph 89 % 0 in meteobridge W/m2
06:49 33.8 °F 30.9 °F 30.4 in West 3.4 mph 3.4 mph 89 % 0 in meteobridge W/m2
06:55 33.8 °F 30.4 °F 30.4 in Calm   2.9 mph 87 % 0 in meteobridge W/m2
07:01 33.6 °F 30.2 °F 30.4 in West 4.3 mph 4.3 mph 87 % 0 in meteobridge W/m2
07:08 33.6 °F 29.8 °F 30.4 in WSW 2.7 mph 2.7 mph 86 % 0 in meteobridge W/m2
07:14 33.4 °F 29.7 °F 30.4 in WSW 7.6 mph 7.6 mph 86 % 0 in meteobridge W/m2
07:20 33.4 °F 29.7 °F 30.4 in WSW 2.9 mph 2.9 mph 86 % 0 in meteobridge W/m2
07:27 33.3 °F 29.5 °F 30.4 in WSW 5.8 mph 6 mph 86 % 0 in meteobridge W/m2
07:33 33.3 °F 29.5 °F 30.4 in WSW 1.6 mph 4.7 mph 86 % 0 in meteobridge W/m2
07:40 33.3 °F 29.5 °F 30.4 in West 3.1 mph 3.1 mph 86 % 0 in meteobridge W/m2
07:50 33.3 °F 29.5 °F 30.4 in WSW 2.9 mph 2.9 mph 86 % 0 in meteobridge W/m2
07:57 33.3 °F 29.5 °F 30.4 in Calm     86 % 0 in meteobridge W/m2
08:03 33.1 °F 29.3 °F 30.4 in Calm   1.1 mph 86 % 0 in meteobridge W/m2
08:10 33.1 °F 29.3 °F 30.4 in WSW 1.1 mph 2 mph 86 % 0 in meteobridge W/m2
08:16 32.9 °F 29.1 °F 30.4 in WSW 3.6 mph 3.6 mph 86 % 0 in meteobridge W/m2
08:23 33.1 °F 29.7 °F 30.4 in WSW 2.5 mph 2.5 mph 87 % 0 in meteobridge W/m2
08:29 32.9 °F 29.5 °F 30.4 in WNW 2.2 mph 3.1 mph 87 % 0 in meteobridge W/m2
08:36 32.9 °F 29.5 °F 30.4 in WSW 5.8 mph 5.8 mph 87 % 0 in meteobridge W/m2
08:42 32.9 °F 29.5 °F 30.4 in ESE 0.9 mph 6.5 mph 87 % 0 in meteobridge W/m2
08:53 32.7 °F 29.3 °F 30.4 in WSW 0.9 mph 6.3 mph 87 % 0 in meteobridge W/m2
08:59 32.7 °F 28.9 °F 30.4 in WSW 3.4 mph 3.4 mph 86 % 0 in meteobridge W/m2
09:04 32.7 °F 28.9 °F 30.4 in WSW 7.2 mph 7.2 mph 86 % 0 in meteobridge W/m2
09:10 32.5 °F 28.8 °F 30.4 in WNW 7.6 mph 7.6 mph 86 % 0 in meteobridge W/m2
09:27 32.7 °F 28.9 °F 30.4 in WNW 4.9 mph 4.9 mph 86 % 0 in meteobridge W/m2
09:33 32.7 °F 28.9 °F 30.4 in WSW 2 mph 2 mph 86 % 0 in meteobridge W/m2
09:40 32.7 °F 28.9 °F 30.4 in WSW 3.6 mph 4 mph 86 % 0 in meteobridge W/m2
09:46 32.9 °F 29.1 °F 30.4 in WSW 2.9 mph 4.5 mph 86 % 0 in meteobridge W/m2
09:53 32.7 °F 28.9 °F 30.4 in WNW 5.4 mph 5.4 mph 86 % 0 in meteobridge W/m2
10:01 32.7 °F 28.9 °F 30.4 in WSW 4.3 mph 4.3 mph 86 % 0 in meteobridge W/m2
10:06 32.9 °F 29.1 °F 30.4 in WNW 3.4 mph 3.6 mph 86 % 0 in meteobridge W/m2
10:12 32.7 °F 28.9 °F 30.4 in WSW 4.3 mph 4.3 mph 86 % 0 in meteobridge W/m2
10:29 33.1 °F 29.1 °F 30.4 in WSW 1.1 mph 3.1 mph 85 % 0 in meteobridge W/m2
10:44 32.9 °F 28.9 °F 30.4 in West 3.1 mph 5.8 mph 85 % 0 in meteobridge W/m2
10:50 33.1 °F 29.1 °F 30.4 in West 3.1 mph 3.1 mph 85 % 0 in meteobridge W/m2
10:58 33.1 °F 29.1 °F 30.4 in Calm     85 % 0 in meteobridge W/m2
11:04 33.3 °F 28.9 °F 30.4 in WNW 2.5 mph 4.7 mph 84 % 0 in meteobridge W/m2
11:17 33.3 °F 28.9 °F 30.4 in Calm     84 % 0 in meteobridge W/m2
11:22 33.4 °F 29.1 °F 30.4 in WSW 2.7 mph 2.7 mph 84 % 0 in meteobridge W/m2
11:28 33.6 °F 29.3 °F 30.4 in West 2.5 mph 2.5 mph 84 % 0 in meteobridge W/m2
11:34 33.8 °F 29.5 °F 30.4 in WSW 2.2 mph 2.9 mph 84 % 0 in meteobridge W/m2
11:41 33.6 °F 29.3 °F 30.4 in East 3.8 mph 3.8 mph 84 % 0 in meteobridge W/m2
11:47 33.6 °F 29.3 °F 30.4 in WSW 3.6 mph 3.6 mph 84 % 0 in meteobridge W/m2
11:52 33.6 °F 29.3 °F 30.4 in East 1.3 mph 1.3 mph 84 % 0 in meteobridge W/m2
11:58 34 °F 29.7 °F 30.4 in WSW 2.5 mph 2.5 mph 84 % 0 in meteobridge W/m2
12:04 33.6 °F 28.9 °F 30.4 in WSW 3.8 mph 3.8 mph 83 % 0 in meteobridge W/m2
12:11 33.8 °F 29.1 °F 30.4 in WSW 2.5 mph 2.5 mph 83 % 0 in meteobridge W/m2
12:17 33.6 °F 28.9 °F 30.4 in WSW 2.5 mph 4.9 mph 83 % 0 in meteobridge W/m2
12:22 33.6 °F 28.9 °F 30.4 in WSW 1.1 mph 3.6 mph 83 % 0 in meteobridge W/m2
12:28 33.6 °F 28.9 °F 30.4 in WSW 1.1 mph 2.5 mph 83 % 0 in meteobridge W/m2
12:34 33.8 °F 29.1 °F 30.4 in WSW 3.4 mph 3.4 mph 83 % 0 in meteobridge W/m2
12:41 33.6 °F 28.9 °F 30.4 in West 4.9 mph 4.9 mph 83 % 0 in meteobridge W/m2
12:54 33.6 °F 28.9 °F 30.4 in WSW 6.3 mph 6.3 mph 83 % 0 in meteobridge W/m2
13:02 33.6 °F 28.9 °F 30.4 in WSW 4 mph -998.7 mph 83 % 0 in meteobridge W/m2
13:08 33.6 °F 28.9 °F 30.4 in WSW 4 mph -998.7 mph 83 % 0 in meteobridge W/m2
13:20 33.4 °F 28.6 °F 30.4 in North -999.5 mph -998.7 mph 82 % 0 in meteobridge W/m2
13:51 33.4 °F 28.6 °F 30.4 in WSW 3.8 mph 3.8 mph 82 % 0 in meteobridge W/m2
13:57 33.4 °F 28.6 °F 30.4 in NW 2.5 mph 2.5 mph 82 % 0 in meteobridge W/m2
14:11 33.4 °F 28.2 °F 30.4 in WSW 3.8 mph 3.8 mph 81 % 0 in meteobridge W/m2
14:17 33.4 °F 28.2 °F 30.4 in WSW 3.8 mph -998.7 mph 81 % 0 in meteobridge W/m2
14:35 33.6 °F 28 °F 30.4 in West 2.9 mph 2.9 mph 80 % 0 in meteobridge W/m2
14:41 33.4 °F 27.7 °F 30.4 in WSW 4.3 mph 4.3 mph 79 % 0 in meteobridge W/m2
14:47 33.4 °F 27.7 °F 30.4 in Calm   2 mph 79 % 0 in meteobridge W/m2
14:53 33.3 °F 27.1 °F 30.4 in West 2 mph 2.5 mph 78 % 0 in meteobridge W/m2
14:59 33.3 °F 27.1 °F 30.4 in WSW 2.9 mph 2.9 mph 78 % 0 in meteobridge W/m2
15:06 33.3 °F 27.1 °F 30.4 in NNW 2.7 mph 2.7 mph 78 % 0 in meteobridge W/m2
15:13 33.3 °F 27.1 °F 30.4 in WSW 2.7 mph -998.7 mph 78 % 0 in meteobridge W/m2
15:19 33.1 °F 26.6 °F 30.4 in WSW 2 mph 3.4 mph 77 % 0 in meteobridge W/m2
15:35 33.1 °F 26.1 °F 30.4 in SW 5.6 mph 5.6 mph 75 % 0 in meteobridge W/m2
15:41 33.1 °F 26.1 °F 30.4 in WSW 2.9 mph 3.4 mph 75 % 0 in meteobridge W/m2
15:47 33.1 °F 26.1 °F 30.4 in WSW 4.3 mph 4.3 mph 75 % 0 in meteobridge W/m2
15:56 33.1 °F 26.1 °F 30.4 in West 2.5 mph 3.1 mph 75 % 0 in meteobridge W/m2
15:57 33.1 °F 26.1 °F 30.4 in WSW 3.4 mph 3.4 mph 75 % 0 in meteobridge W/m2
16:03 32.9 °F 25.5 °F 30.4 in WSW 3.1 mph 3.8 mph 74 % 0 in meteobridge W/m2
16:09 32.7 °F 25.3 °F 30.4 in NE 1.6 mph 1.6 mph 74 % 0 in meteobridge W/m2
16:10 32.7 °F 25.3 °F 30.4 in NE 1.6 mph 1.6 mph 74 % 0 in meteobridge W/m2
16:15 32.5 °F 24.8 °F 30.4 in SW 1.1 mph 1.1 mph 73 % 0 in meteobridge W/m2
16:20 32.5 °F 24.8 °F 30.4 in WSW 4.3 mph 4.3 mph 73 % 0 in meteobridge W/m2
16:30 32.4 °F 24.3 °F 30.4 in WSW 2 mph 2 mph 72 % 0 in meteobridge W/m2
16:37 32.4 °F 24.3 °F 30.4 in WSW 2 mph 2 mph 72 % 0 in meteobridge W/m2
16:43 32.5 °F 24.4 °F 30.4 in West 0.9 mph 3.4 mph 72 % 0 in meteobridge W/m2
16:49 32.7 °F 24.4 °F 30.4 in Calm     71 % 0 in meteobridge W/m2
16:55 32.5 °F 24.3 °F 30.4 in West 2.9 mph 2.9 mph 71 % 0 in meteobridge W/m2
17:01 32.5 °F 24.3 °F 30.4 in West 1.1 mph 2 mph 71 % 0 in meteobridge W/m2
17:07 32.7 °F 24.4 °F 30.4 in WSW 2 mph 2 mph 71 % 0 in meteobridge W/m2
17:13 32.7 °F 24.4 °F 30.4 in WSW 2.2 mph 2.2 mph 71 % 0 in meteobridge W/m2
17:21 32.7 °F 24.4 °F 30.4 in Calm   1.6 mph 71 % 0 in meteobridge W/m2
17:27 32.7 °F 24.4 °F 30.4 in WSW 2 mph 2 mph 71 % 0 in meteobridge W/m2
17:33 32.7 °F 24.4 °F 30.4 in WSW 0.9 mph 1.6 mph 71 % 0 in meteobridge W/m2
17:42 32.7 °F 24.1 °F 30.4 in SW 1.1 mph 3.6 mph 70 % 0 in meteobridge W/m2
17:48 32.7 °F 24.1 °F 30.4 in Calm   3.6 mph 70 % 0 in meteobridge W/m2
17:57 33.1 °F 24.6 °F 30.4 in Calm     71 % 0 in meteobridge W/m2
18:09 32.9 °F 25.2 °F 30.4 in Calm   0.9 mph 73 % 0 in meteobridge W/m2
18:15 33.1 °F 25.3 °F 30.4 in WSW 2 mph 2 mph 73 % 0 in meteobridge W/m2
18:21 33.1 °F 26.1 °F 30.4 in WSW 1.6 mph 2 mph 75 % 0 in meteobridge W/m2
18:29 33.1 °F 26.1 °F 30.4 in Calm   1.1 mph 75 % 0 in meteobridge W/m2
18:35 32.9 °F 26.4 °F 30.4 in WSW 3.4 mph 3.4 mph 77 % 0 in meteobridge W/m2
18:42 32.7 °F 26.2 °F 30.4 in WSW 4.3 mph 4.3 mph 77 % 0 in meteobridge W/m2
18:47 32.4 °F 26.2 °F 30.4 in WSW 2.9 mph 2.9 mph 78 % 0 in meteobridge W/m2
18:53 32.4 °F 26.2 °F 30.4 in WSW 2.5 mph 3.1 mph 78 % 0 in meteobridge W/m2
18:59 32.4 °F 26.2 °F 30.4 in WSW 2.9 mph 2.9 mph 78 % 0 in meteobridge W/m2
19:05 32.2 °F 26.1 °F 30.4 in WSW 3.1 mph 3.1 mph 78 % 0 in meteobridge W/m2
19:17 32.2 °F 26.4 °F 30.4 in West 2.5 mph 2.5 mph 79 % 0 in meteobridge W/m2
19:23 31.8 °F 26.1 °F 30.4 in SSW 1.1 mph 1.3 mph 79 % 0 in meteobridge W/m2
19:29 31.5 °F 25.7 °F 30.4 in SW 1.6 mph 3.6 mph 79 % 0 in meteobridge W/m2
19:35 31.6 °F 26.2 °F 30.4 in NNW 0.9 mph 3.4 mph 80 % 0 in meteobridge W/m2
19:43 31.3 °F 25.9 °F 30.4 in WSW 2.9 mph 3.4 mph 80 % 0 in meteobridge W/m2
19:51 31.5 °F 26.1 °F 30.4 in Calm     80 % 0 in meteobridge W/m2
19:57 31.6 °F 26.4 °F 30.4 in West 2 mph 2 mph 81 % 0 in meteobridge W/m2
19:58 31.5 °F 26.1 °F 30.4 in WSW 1.1 mph 1.6 mph 80 % 0 in meteobridge W/m2
20:05 31.6 °F 26.4 °F 30.4 in Calm     81 % 0 in meteobridge W/m2
20:11 31.6 °F 26.4 °F 30.4 in WSW 3.8 mph 3.8 mph 81 % 0 in meteobridge W/m2
20:17 31.8 °F 26.6 °F 30.4 in Calm     81 % 0 in meteobridge W/m2
20:23 32 °F 26.8 °F 30.4 in WSW 1.3 mph 2.9 mph 81 % 0 in meteobridge W/m2
20:29 31.8 °F 26.6 °F 30.4 in WSW 5.8 mph -998.7 mph 81 % 0 in meteobridge W/m2
20:35 31.6 °F 26.2 °F 30.4 in WSW 4 mph 4 mph 80 % 0 in meteobridge W/m2
20:41 31.6 °F 26.2 °F 30.4 in WSW 0.9 mph 2 mph 80 % 0 in meteobridge W/m2
20:47 31.6 °F 26.2 °F 30.4 in WSW 5.4 mph 5.4 mph 80 % 0 in meteobridge W/m2
20:53 31.8 °F 26.4 °F 30.4 in WSW 1.6 mph 2.7 mph 80 % 0 in meteobridge W/m2
21:04 31.5 °F 26.1 °F 30.4 in WSW 7.4 mph 7.4 mph 80 % 0 in meteobridge W/m2
21:11 31.5 °F 26.1 °F 30.4 in West 0.9 mph 1.1 mph 80 % 0 in meteobridge W/m2
21:18 31.6 °F 26.2 °F 30.4 in West 2.7 mph 2.7 mph 80 % 0 in meteobridge W/m2
21:24 31.6 °F 26.2 °F 30.4 in Calm   2.9 mph 80 % 0 in meteobridge W/m2
21:30 31.8 °F 26.4 °F 30.4 in WSW 3.6 mph 4.7 mph 80 % 0 in meteobridge W/m2
21:36 31.8 °F 26.4 °F 30.4 in Calm   2.9 mph 80 % 0 in meteobridge W/m2
21:42 31.8 °F 26.4 °F 30.4 in South 0.9 mph 2.9 mph 80 % 0 in meteobridge W/m2
21:48 31.8 °F 26.4 °F 30.3 in West 3.4 mph 3.4 mph 80 % 0 in meteobridge W/m2
21:54 31.8 °F 26.4 °F 30.3 in WSW 2.9 mph 2.9 mph 80 % 0 in meteobridge W/m2
22:00 31.8 °F 26.4 °F 30.3 in WSW 3.8 mph 3.8 mph 80 % 0 in meteobridge W/m2
22:06 31.8 °F 26.4 °F 30.3 in ENE 2.2 mph 3.6 mph 80 % 0 in meteobridge W/m2
22:12 32 °F 26.6 °F 30.3 in West 1.1 mph 1.1 mph 80 % 0 in meteobridge W/m2
22:18 31.8 °F 26.4 °F 30.3 in WSW 5.6 mph 5.6 mph 80 % 0 in meteobridge W/m2
22:28 31.8 °F 26.4 °F 30.3 in WSW 2.5 mph 5.6 mph 80 % 0 in meteobridge W/m2
22:35 32 °F 26.6 °F 30.3 in WSW 2.9 mph 3.6 mph 80 % 0 in meteobridge W/m2
22:41 32 °F 26.8 °F 30.3 in WSW 2.7 mph 3.1 mph 81 % 0 in meteobridge W/m2
22:47 31.8 °F 26.4 °F 30.3 in WSW 3.4 mph 3.4 mph 80 % 0 in meteobridge W/m2
22:54 31.8 °F 26.6 °F 30.3 in WSW 1.6 mph 2.7 mph 81 % 0 in meteobridge W/m2
23:00 32 °F 26.8 °F 30.3 in Calm   1.6 mph 81 % 0 in meteobridge W/m2
23:07 32 °F 26.8 °F 30.3 in WSW 2.5 mph 2.5 mph 81 % 0 in meteobridge W/m2
23:13 31.8 °F 26.6 °F 30.3 in WSW 2 mph 3.4 mph 81 % 0 in meteobridge W/m2
23:20 31.8 °F 26.6 °F 30.3 in West 4 mph 4 mph 81 % 0 in meteobridge W/m2
23:26 31.8 °F 26.6 °F 30.3 in WSW 5.4 mph 5.4 mph 81 % 0 in meteobridge W/m2
23:34 31.5 °F 26.2 °F 30.3 in WSW 2 mph 2.9 mph 81 % 0 in meteobridge W/m2
23:41 31.3 °F 26.4 °F 30.3 in Calm   2.7 mph 82 % 0 in meteobridge W/m2
23:47 31.6 °F 26.8 °F 30.3 in WSW 2.5 mph 2.5 mph 82 % 0 in meteobridge W/m2
23:53 31.8 °F 27 °F 30.3 in West 1.3 mph 4 mph 82 % 0 in meteobridge W/m2
23:59 32 °F 27.1 °F 30.3 in Calm   3.4 mph 82 % 0 in meteobridge W/m2
Juneau County Weather
Compliments of Weather Underground - 2.25 mb